Time;durP1;ratioP1;P1;durP2;ratioP2;P2;SDS_P1;SDS_P2;PMS_P1;PMS_P2;Temp;Humidity;BMP_temperature;BMP_pressure;BME280_temperature;BME280_humidity;BME280_pressure;Samples;Min_cycle;Max_cycle;Signal;HPM_P1;HPM_P2
2022/11/03 00:01:00;;;;;;;19.23;3.45;;;;;;;;;;5000114;28;93985;-83
2022/11/03 00:03:30;;;;;;;16.35;3.38;;;;;;;;;;4997781;28;96561;-82
2022/11/03 00:06:06;;;;;;;25.65;4.47;;;;;;;;;;5002965;28;92352;-82
2022/11/03 00:08:32;;;;;;;15.25;4.07;;;;;;;;;;4999032;28;94419;-84
2022/11/03 00:11:06;;;;;;;14.90;3.72;;;;;;;;;;4998712;28;92458;-82
2022/11/03 00:13:33;;;;;;;17.50;4.38;;;;;;;;;;5001454;28;93806;-83
2022/11/03 00:15:59;;;;;;;20.33;4.03;;;;;;;;;;4982794;28;94751;-83
2022/11/03 00:18:26;;;;;;;15.00;3.85;;;;;;;;;;4998915;28;92403;-83
2022/11/03 00:21:11;;;;;;;22.17;3.75;;;;;;;;;;4999389;28;93735;-82
2022/11/03 00:23:39;;;;;;;18.05;3.17;;;;;;;;;;4998289;28;94558;-83
2022/11/03 00:26:25;;;;;;;13.00;3.30;;;;;;;;;;5001214;28;92476;-83
2022/11/03 00:28:53;;;;;;;20.60;3.85;;;;;;;;;;4996866;28;96731;-84
2022/11/03 00:31:21;;;;;;;12.18;3.50;;;;;;;;;;4999001;28;92441;-84
2022/11/03 00:33:47;;;;;;;15.20;4.18;;;;;;;;;;4998279;28;94090;-83
2022/11/03 00:36:14;;;;;;;24.17;4.70;;;;;;;;;;4998201;28;94096;-83
2022/11/03 00:38:41;;;;;;;14.25;4.50;;;;;;;;;;4996666;28;92380;-83
2022/11/03 00:41:08;;;;;;;15.40;4.13;;;;;;;;;;4997956;28;93888;-84
2022/11/03 00:43:35;;;;;;;16.00;4.05;;;;;;;;;;4997930;28;94190;-84
2022/11/03 00:46:04;;;;;;;12.48;2.80;;;;;;;;;;4997096;28;92214;-84
2022/11/03 00:48:33;;;;;;;17.17;4.40;;;;;;;;;;5000107;28;92517;-84
2022/11/03 00:51:00;;;;;;;16.00;3.20;;;;;;;;;;4998244;28;92604;-83
2022/11/03 00:53:26;;;;;;;15.95;3.70;;;;;;;;;;4995919;28;94663;-84
2022/11/03 00:55:53;;;;;;;14.32;3.35;;;;;;;;;;4997307;28;94335;-83
2022/11/03 00:58:19;;;;;;;12.68;4.28;;;;;;;;;;4997502;28;92562;-84
2022/11/03 01:00:46;;;;;;;16.08;3.75;;;;;;;;;;4996540;28;93222;-83
2022/11/03 01:03:12;;;;;;;19.92;3.80;;;;;;;;;;4996690;28;94638;-82
2022/11/03 01:08:33;;;;;;;18.35;4.20;;;;;;;;;;4997057;28;93858;-82
2022/11/03 01:13:46;;;;;;;19.50;3.45;;;;;;;;;;4998302;28;120900;-84
2022/11/03 01:16:13;;;;;;;9.95;3.20;;;;;;;;;;4995248;28;93650;-83
2022/11/03 01:18:39;;;;;;;13.48;3.33;;;;;;;;;;4995616;28;95175;-83
2022/11/03 01:21:06;;;;;;;16.15;3.40;;;;;;;;;;4996430;28;96313;-83
2022/11/03 01:23:33;;;;;;;14.70;3.45;;;;;;;;;;4996770;28;94102;-84
2022/11/03 01:26:04;;;;;;;13.77;2.88;;;;;;;;;;4996433;28;92390;-85
2022/11/03 01:28:32;;;;;;;14.02;3.38;;;;;;;;;;4996183;28;93168;-83
2022/11/03 01:31:02;;;;;;;21.23;4.10;;;;;;;;;;4996398;28;94274;-83
2022/11/03 01:33:28;;;;;;;11.35;2.88;;;;;;;;;;5000038;28;92483;-83
2022/11/03 01:35:54;;;;;;;18.55;3.83;;;;;;;;;;4997191;28;93245;-83
2022/11/03 01:38:21;;;;;;;16.95;3.78;;;;;;;;;;4996499;28;92356;-83
2022/11/03 01:40:48;;;;;;;20.02;4.05;;;;;;;;;;4997312;28;92664;-83
2022/11/03 01:43:17;;;;;;;8.98;3.15;;;;;;;;;;4994441;28;97055;-83
2022/11/03 01:45:46;;;;;;;18.45;3.65;;;;;;;;;;4996751;28;92439;-83
2022/11/03 01:48:12;;;;;;;10.52;3.15;;;;;;;;;;4996593;28;94649;-83
2022/11/03 01:50:39;;;;;;;9.95;2.50;;;;;;;;;;4994899;28;93546;-83
2022/11/03 01:53:06;;;;;;;17.85;3.35;;;;;;;;;;4995595;28;92468;-83
2022/11/03 01:55:38;;;;;;;18.33;3.45;;;;;;;;;;4998606;28;92857;-82
2022/11/03 01:58:11;;;;;;;12.93;3.35;;;;;;;;;;4995399;28;92461;-82
2022/11/03 02:00:39;;;;;;;12.45;3.47;;;;;;;;;;4997147;28;94061;-83
2022/11/03 02:03:05;;;;;;;15.80;4.43;;;;;;;;;;4994839;28;94271;-85
2022/11/03 02:05:32;;;;;;;12.95;3.25;;;;;;;;;;4996188;28;92407;-84
2022/11/03 02:08:13;;;;;;;16.38;3.60;;;;;;;;;;4995253;28;94799;-83
2022/11/03 02:10:39;;;;;;;25.42;3.78;;;;;;;;;;4996458;28;94241;-83
2022/11/03 02:13:14;;;;;;;12.95;4.32;;;;;;;;;;4997156;28;92469;-83
2022/11/03 02:15:41;;;;;;;18.00;3.25;;;;;;;;;;4999909;28;93961;-83
2022/11/03 02:18:08;;;;;;;18.00;3.22;;;;;;;;;;4994985;28;92451;-83
2022/11/03 02:20:34;;;;;;;13.45;3.25;;;;;;;;;;4997199;28;93956;-83
2022/11/03 02:23:07;;;;;;;10.63;2.88;;;;;;;;;;4996851;28;94093;-83
2022/11/03 02:25:33;;;;;;;;;;;;;;;;;;4997510;28;91606;-82
2022/11/03 02:28:01;;;;;;;13.07;3.42;;;;;;;;;;5000260;28;122657;-83
2022/11/03 02:30:31;;;;;;;12.32;3.30;;;;;;;;;;5001066;28;93525;-83
2022/11/03 02:33:09;;;;;;;18.42;4.13;;;;;;;;;;4995996;28;94749;-83
2022/11/03 02:35:47;;;;;;;12.20;3.15;;;;;;;;;;4996574;28;96776;-82
2022/11/03 02:38:14;;;;;;;9.95;3.33;;;;;;;;;;4998245;28;94516;-82
2022/11/03 02:40:44;;;;;;;8.20;2.78;;;;;;;;;;4995365;28;93070;-82
2022/11/03 02:43:13;;;;;;;17.17;3.67;;;;;;;;;;4994658;28;94852;-83
2022/11/03 02:45:40;;;;;;;10.88;3.33;;;;;;;;;;4995142;28;92521;-82
2022/11/03 02:48:07;;;;;;;19.63;3.63;;;;;;;;;;4995751;28;93304;-84
2022/11/03 02:50:33;;;;;;;15.68;3.92;;;;;;;;;;4996350;28;92554;-84
2022/11/03 02:53:00;;;;;;;13.50;3.60;;;;;;;;;;4994690;28;92524;-83
2022/11/03 02:55:53;;;;;;;15.38;3.80;;;;;;;;;;4996049;28;93904;-83
2022/11/03 02:58:48;;;;;;;13.65;3.25;;;;;;;;;;4991973;28;97894;-83
2022/11/03 03:01:23;;;;;;;21.55;3.42;;;;;;;;;;4988981;28;92544;-82
2022/11/03 03:03:54;;;;;;;20.23;3.63;;;;;;;;;;4981152;28;93416;-82
2022/11/03 03:06:35;;;;;;;16.52;3.53;;;;;;;;;;4999306;28;92374;-82
2022/11/03 03:09:06;;;;;;;14.32;2.80;;;;;;;;;;4997261;28;93331;-83
2022/11/03 03:11:37;;;;;;;11.60;3.25;;;;;;;;;;4998533;28;93281;-82
2022/11/03 03:14:11;;;;;;;13.37;3.60;;;;;;;;;;4998794;28;92295;-82
2022/11/03 03:16:37;;;;;;;;;;;;;;;;;;5000363;28;93919;-82
2022/11/03 03:19:16;;;;;;;10.18;2.92;;;;;;;;;;4998813;28;123788;-82
2022/11/03 03:21:45;;;;;;;17.77;3.75;;;;;;;;;;4998009;28;92930;-83
2022/11/03 03:24:15;;;;;;;17.40;3.17;;;;;;;;;;5000135;28;94755;-83
2022/11/03 03:26:43;;;;;;;12.23;3.13;;;;;;;;;;4997519;28;92477;-83
2022/11/03 03:29:12;;;;;;;14.90;3.75;;;;;;;;;;4997171;28;92922;-82
2022/11/03 03:31:41;;;;;;;13.10;3.20;;;;;;;;;;4998519;28;93662;-83
2022/11/03 03:34:09;;;;;;;8.75;2.58;;;;;;;;;;4999137;28;92338;-82
2022/11/03 03:36:57;;;;;;;11.63;3.03;;;;;;;;;;4999085;28;94084;-82
2022/11/03 03:39:26;;;;;;;9.57;2.78;;;;;;;;;;4998965;28;94224;-82
2022/11/03 03:41:54;;;;;;;14.82;2.88;;;;;;;;;;4998529;28;91768;-82
2022/11/03 03:44:21;;;;;;;22.00;3.40;;;;;;;;;;4999061;28;93242;-82
2022/11/03 03:46:50;;;;;;;21.02;3.50;;;;;;;;;;5001721;28;94256;-83
2022/11/03 03:49:16;;;;;;;17.23;3.88;;;;;;;;;;4996397;28;95252;-83
2022/11/03 03:51:43;;;;;;;14.68;2.85;;;;;;;;;;4998178;28;93515;-82
2022/11/03 03:54:09;;;;;;;15.32;3.05;;;;;;;;;;4998444;28;92468;-82
2022/11/03 03:56:47;;;;;;;10.25;2.92;;;;;;;;;;4997767;28;92896;-82
2022/11/03 03:59:13;;;;;;;14.65;3.92;;;;;;;;;;4997667;28;94388;-82
2022/11/03 04:01:40;;;;;;;10.48;2.88;;;;;;;;;;4998497;28;92464;-83
2022/11/03 04:04:07;;;;;;;21.73;4.30;;;;;;;;;;4997874;28;94145;-82
2022/11/03 04:06:35;;;;;;;18.60;3.10;;;;;;;;;;4998155;28;92683;-83
2022/11/03 04:09:01;;;;;;;15.65;4.25;;;;;;;;;;5000923;28;92533;-82
2022/11/03 04:22:30;;;;;;;10.23;3.08;;;;;;;;;;4998751;28;92491;-83
2022/11/03 04:24:57;;;;;;;17.27;3.05;;;;;;;;;;4997289;28;93121;-83
2022/11/03 04:27:34;;;;;;;11.07;3.10;;;;;;;;;;4996728;28;93436;-83
2022/11/03 04:30:18;;;;;;;10.70;2.80;;;;;;;;;;5001029;28;92464;-83
2022/11/03 04:32:45;;;;;;;10.77;3.22;;;;;;;;;;4997213;28;91659;-83
2022/11/03 04:35:19;;;;;;;20.17;3.40;;;;;;;;;;4998262;28;92483;-83
2022/11/03 04:37:47;;;;;;;13.10;3.25;;;;;;;;;;4998354;28;94075;-83
2022/11/03 04:40:15;;;;;;;10.40;2.92;;;;;;;;;;4996699;28;95757;-82
2022/11/03 04:42:42;;;;;;;9.63;2.88;;;;;;;;;;5002458;28;92458;-82
2022/11/03 04:45:20;;;;;;;10.70;3.30;;;;;;;;;;5002244;28;93939;-83
2022/11/03 04:47:46;;;;;;;12.52;3.05;;;;;;;;;;4998864;28;94799;-83
2022/11/03 04:50:15;;;;;;;12.75;3.17;;;;;;;;;;4997518;28;92561;-83
2022/11/03 04:52:42;;;;;;;14.55;3.22;;;;;;;;;;5000065;28;92820;-82
2022/11/03 04:55:12;;;;;;;15.88;4.40;;;;;;;;;;4998118;28;92929;-83
2022/11/03 04:57:39;;;;;;;13.10;3.40;;;;;;;;;;4998875;28;93922;-83
2022/11/03 05:00:06;;;;;;;12.70;3.22;;;;;;;;;;4996135;28;93284;-82
2022/11/03 05:02:33;;;;;;;14.05;3.25;;;;;;;;;;4996863;28;92450;-82
2022/11/03 05:04:59;;;;;;;12.75;3.47;;;;;;;;;;4994157;28;96111;-81
2022/11/03 05:07:34;;;;;;;15.63;3.22;;;;;;;;;;4996831;28;94161;-82
2022/11/03 05:10:02;;;;;;;20.55;3.60;;;;;;;;;;4996760;28;92437;-82
2022/11/03 05:12:29;;;;;;;10.90;3.20;;;;;;;;;;4997548;28;93870;-82
2022/11/03 05:14:55;;;;;;;12.18;3.08;;;;;;;;;;4999394;28;94114;-82
2022/11/03 05:17:25;;;;;;;15.25;3.05;;;;;;;;;;4997018;28;94128;-82
2022/11/03 05:20:00;;;;;;;13.18;3.80;;;;;;;;;;4996648;28;94587;-82
2022/11/03 05:22:30;;;;;;;10.57;2.90;;;;;;;;;;4998071;28;91675;-82
2022/11/03 05:25:01;;;;;;;10.20;2.72;;;;;;;;;;4996948;28;93009;-82
2022/11/03 05:27:27;;;;;;;11.10;3.25;;;;;;;;;;4996698;28;94178;-82
2022/11/03 05:29:55;;;;;;;13.48;2.88;;;;;;;;;;5008325;28;94875;-81
2022/11/03 05:32:31;;;;;;;13.85;3.97;;;;;;;;;;5014796;28;96291;-82
2022/11/03 05:34:58;;;;;;;10.70;3.15;;;;;;;;;;5012246;28;94296;-82
2022/11/03 05:37:31;;;;;;;18.83;3.72;;;;;;;;;;5013097;28;92480;-81
2022/11/03 05:39:58;;;;;;;8.27;2.90;;;;;;;;;;5008619;28;92310;-82
2022/11/03 05:42:34;;;;;;;17.98;3.60;;;;;;;;;;5007460;28;92473;-81
2022/11/03 05:45:07;;;;;;;14.75;3.20;;;;;;;;;;4998299;28;93460;-82
2022/11/03 05:47:37;;;;;;;11.50;3.30;;;;;;;;;;4999048;28;93203;-82
2022/11/03 05:50:15;;;;;;;10.27;2.67;;;;;;;;;;4998631;28;92354;-82
2022/11/03 05:52:42;;;;;;;15.27;3.65;;;;;;;;;;4997610;28;94220;-82
2022/11/03 05:55:19;;;;;;;11.82;3.10;;;;;;;;;;4994702;28;97066;-82
2022/11/03 05:57:45;;;;;;;9.73;3.05;;;;;;;;;;4998552;28;92339;-82
2022/11/03 06:00:26;;;;;;;13.20;3.00;;;;;;;;;;4999294;28;93210;-82
2022/11/03 06:02:52;;;;;;;9.48;3.10;;;;;;;;;;4995718;28;92411;-82
2022/11/03 06:05:20;;;;;;;14.05;3.92;;;;;;;;;;4998936;28;93812;-82
2022/11/03 06:07:47;;;;;;;13.93;2.80;;;;;;;;;;4998280;28;93128;-82
2022/11/03 06:10:37;;;;;;;13.13;3.50;;;;;;;;;;4998277;28;92621;-83
2022/11/03 06:13:09;;;;;;;12.82;3.30;;;;;;;;;;4990972;28;93112;-83
2022/11/03 06:15:36;;;;;;;10.20;3.50;;;;;;;;;;4996190;28;93263;-82
2022/11/03 06:18:15;;;;;;;18.33;4.57;;;;;;;;;;4996207;28;92558;-82
2022/11/03 06:20:45;;;;;;;10.30;2.90;;;;;;;;;;4995566;28;94830;-82
2022/11/03 06:23:14;;;;;;;13.02;3.45;;;;;;;;;;4998977;28;92530;-82
2022/11/03 06:25:42;;;;;;;9.25;3.00;;;;;;;;;;4996157;28;94219;-82
2022/11/03 06:28:19;;;;;;;17.23;3.35;;;;;;;;;;4995597;28;92869;-82
2022/11/03 06:30:45;;;;;;;17.73;3.50;;;;;;;;;;4996600;28;92345;-82
2022/11/03 06:33:15;;;;;;;12.15;3.00;;;;;;;;;;4996479;28;94254;-81
2022/11/03 06:35:42;;;;;;;12.95;2.95;;;;;;;;;;4996354;28;94106;-82
2022/11/03 06:38:14;;;;;;;15.90;2.95;;;;;;;;;;4998970;28;91621;-82
2022/11/03 06:40:41;;;;;;;19.13;4.15;;;;;;;;;;4999039;28;92444;-82
2022/11/03 06:43:16;;;;;;;11.73;3.20;;;;;;;;;;5002552;28;93324;-82
2022/11/03 06:45:50;;;;;;;15.73;3.65;;;;;;;;;;4998045;28;94855;-82
2022/11/03 06:48:22;;;;;;;12.65;3.78;;;;;;;;;;5000223;28;93185;-82
2022/11/03 06:50:49;;;;;;;13.02;3.85;;;;;;;;;;5000723;28;92569;-83
2022/11/03 06:53:20;;;;;;;12.57;3.33;;;;;;;;;;4982576;28;94124;-82
2022/11/03 06:55:47;;;;;;;15.35;3.95;;;;;;;;;;4999726;28;94369;-82
2022/11/03 06:58:15;;;;;;;12.02;3.50;;;;;;;;;;4999576;28;92460;-81
2022/11/03 07:00:42;;;;;;;10.45;3.60;;;;;;;;;;4981550;28;92470;-82
2022/11/03 07:03:33;;;;;;;15.27;3.67;;;;;;;;;;5000763;28;93611;-80
2022/11/03 07:06:09;;;;;;;10.35;3.17;;;;;;;;;;5001413;28;92548;-80
2022/11/03 07:08:38;;;;;;;15.40;3.67;;;;;;;;;;4998547;28;94378;-80
2022/11/03 07:11:11;;;;;;;12.80;3.80;;;;;;;;;;4997235;28;95269;-80
2022/11/03 07:13:38;;;;;;;10.77;3.47;;;;;;;;;;4998757;28;96376;-80
2022/11/03 07:16:10;;;;;;;16.88;3.90;;;;;;;;;;4997484;28;94583;-80
2022/11/03 07:18:44;;;;;;;10.70;3.20;;;;;;;;;;4999408;28;92407;-77
2022/11/03 07:21:30;;;;;;;19.33;3.15;;;;;;;;;;4996902;28;92978;-89
2022/11/03 07:23:58;;;;;;;8.70;2.75;;;;;;;;;;4997938;28;93330;-83
2022/11/03 07:26:25;;;;;;;18.92;3.53;;;;;;;;;;4998908;28;92480;-83
2022/11/03 07:28:52;;;;;;;13.85;3.80;;;;;;;;;;5001317;28;92883;-82
2022/11/03 07:31:20;;;;;;;15.05;3.58;;;;;;;;;;4999071;28;93694;-81
2022/11/03 07:33:46;;;;;;;14.73;2.90;;;;;;;;;;4998810;28;92596;-81
2022/11/03 07:36:16;;;;;;;10.70;3.05;;;;;;;;;;4997044;28;95548;-82
2022/11/03 07:38:44;;;;;;;16.13;3.05;;;;;;;;;;4998581;28;92702;-81
2022/11/03 07:41:14;;;;;;;11.98;3.08;;;;;;;;;;4999654;28;93371;-82
2022/11/03 07:43:48;;;;;;;11.10;3.03;;;;;;;;;;4999027;28;93970;-82
2022/11/03 07:46:18;;;;;;;12.35;4.20;;;;;;;;;;4998749;28;92478;-82
2022/11/03 07:48:45;;;;;;;12.73;3.10;;;;;;;;;;4996180;28;93665;-81
2022/11/03 07:51:19;;;;;;;12.77;3.53;;;;;;;;;;5002043;28;93326;-82
2022/11/03 07:53:46;;;;;;;10.57;3.38;;;;;;;;;;4999217;28;93108;-81
2022/11/03 07:56:19;;;;;;;12.15;2.83;;;;;;;;;;4998693;28;93696;-82
2022/11/03 07:58:47;;;;;;;9.60;3.17;;;;;;;;;;5000775;28;92444;-83
2022/11/03 08:01:21;;;;;;;17.13;3.45;;;;;;;;;;4997343;28;94689;-81
2022/11/03 08:03:48;;;;;;;11.43;3.20;;;;;;;;;;4998247;28;94097;-81
2022/11/03 08:06:14;;;;;;;15.60;3.15;;;;;;;;;;4995250;28;93082;-82
2022/11/03 08:08:45;;;;;;;12.93;3.10;;;;;;;;;;4998492;28;93678;-81
2022/11/03 08:11:11;;;;;;;22.13;4.15;;;;;;;;;;4998231;28;94685;-81
2022/11/03 08:13:40;;;;;;;13.18;3.28;;;;;;;;;;5001956;28;92512;-81
2022/11/03 08:16:07;;;;;;;15.90;3.08;;;;;;;;;;4997066;28;95175;-82
2022/11/03 08:18:33;;;;;;;17.52;3.17;;;;;;;;;;4999335;28;91668;-83
2022/11/03 08:21:00;;;;;;;8.27;2.92;;;;;;;;;;4998763;28;93076;-82
2022/11/03 08:23:26;;;;;;;12.40;4.38;;;;;;;;;;4998316;28;94451;-82
2022/11/03 08:25:53;;;;;;;13.68;3.30;;;;;;;;;;4991529;28;95260;-79
2022/11/03 08:28:19;;;;;;;13.48;3.40;;;;;;;;;;4977389;28;95400;-81
2022/11/03 08:30:46;;;;;;;11.77;3.35;;;;;;;;;;4977664;28;94270;-81
2022/11/03 08:33:12;;;;;;;10.10;2.97;;;;;;;;;;4978530;28;92450;-83
2022/11/03 08:35:40;;;;;;;9.43;3.10;;;;;;;;;;4981048;28;92840;-81
2022/11/03 08:38:09;;;;;;;11.20;3.08;;;;;;;;;;4977610;28;93355;-80
2022/11/03 08:40:35;;;;;;;10.18;3.60;;;;;;;;;;4979228;28;93092;-80
2022/11/03 08:43:03;;;;;;;12.80;4.25;;;;;;;;;;4979422;28;93532;-80
2022/11/03 08:45:30;;;;;;;9.60;3.25;;;;;;;;;;4977908;28;92929;-81
2022/11/03 08:47:56;;;;;;;11.18;3.38;;;;;;;;;;4976983;28;94125;-80
2022/11/03 08:50:23;;;;;;;11.68;3.70;;;;;;;;;;4976085;28;96638;-82
2022/11/03 08:52:49;;;;;;;13.38;3.42;;;;;;;;;;4977229;28;92933;-82
2022/11/03 08:55:15;;;;;;;14.95;3.63;;;;;;;;;;4982431;28;94107;-82
2022/11/03 08:57:42;;;;;;;25.40;4.72;;;;;;;;;;4979242;28;92416;-83
2022/11/03 09:00:08;;;;;;;12.65;3.30;;;;;;;;;;4975505;28;94007;-82
2022/11/03 09:02:35;;;;;;;11.80;3.55;;;;;;;;;;4978775;28;94635;-81
2022/11/03 09:05:02;;;;;;;10.13;2.90;;;;;;;;;;4977963;28;92336;-83
2022/11/03 09:07:28;;;;;;;11.18;3.10;;;;;;;;;;4978450;28;93116;-83
2022/11/03 09:10:16;;;;;;;15.70;2.97;;;;;;;;;;4978627;28;93298;-82
2022/11/03 09:12:47;;;;;;;15.02;3.40;;;;;;;;;;4976568;28;92447;-83
2022/11/03 09:15:13;;;;;;;16.83;3.58;;;;;;;;;;4976896;28;94798;-83
2022/11/03 09:17:41;;;;;;;13.23;3.15;;;;;;;;;;4980696;28;93178;-83
2022/11/03 09:20:11;;;;;;;14.05;3.22;;;;;;;;;;4978900;28;93895;-83
2022/11/03 09:22:38;;;;;;;13.95;3.75;;;;;;;;;;4978687;28;93314;-80
2022/11/03 09:25:04;;;;;;;9.95;3.13;;;;;;;;;;4981223;28;92456;-81
2022/11/03 09:27:32;;;;;;;13.25;3.70;;;;;;;;;;4979757;28;92855;-81
2022/11/03 09:29:58;;;;;;;14.48;3.45;;;;;;;;;;4997104;28;94085;-81
2022/11/03 09:32:39;;;;;;;9.02;3.25;;;;;;;;;;4997762;28;91826;-81
2022/11/03 09:35:06;;;;;;;12.98;3.35;;;;;;;;;;4997209;28;93119;-81
2022/11/03 09:37:33;;;;;;;13.43;3.47;;;;;;;;;;4996880;28;94308;-81
2022/11/03 09:39:59;;;;;;;11.25;2.95;;;;;;;;;;4998529;28;94828;-81
2022/11/03 09:42:25;;;;;;;12.73;3.88;;;;;;;;;;4996966;28;94163;-81
2022/11/03 09:44:53;;;;;;;14.25;3.55;;;;;;;;;;4996546;28;92453;-81
2022/11/03 09:47:23;;;;;;;8.93;3.38;;;;;;;;;;4996798;28;93962;-81
2022/11/03 09:49:50;;;;;;;13.43;3.30;;;;;;;;;;4996540;28;93457;-80
2022/11/03 09:52:19;;;;;;;14.25;3.80;;;;;;;;;;4996639;28;92354;-81
2022/11/03 09:54:45;;;;;;;8.60;3.08;;;;;;;;;;4997003;28;93818;-81
2022/11/03 09:57:13;;;;;;;16.42;3.22;;;;;;;;;;4997102;28;93317;-81
2022/11/03 09:59:42;;;;;;;10.73;3.40;;;;;;;;;;4996558;28;92558;-81
2022/11/03 10:02:21;;;;;;;12.90;3.80;;;;;;;;;;4999263;28;93932;-81
2022/11/03 10:04:49;;;;;;;11.25;3.33;;;;;;;;;;4994518;28;94765;-81
2022/11/03 10:07:17;;;;;;;14.40;3.25;;;;;;;;;;4983816;28;96303;-82
2022/11/03 10:09:48;;;;;;;9.95;3.20;;;;;;;;;;4996581;28;94593;-81
2022/11/03 10:12:15;;;;;;;11.98;2.92;;;;;;;;;;4997020;28;92496;-82
2022/11/03 10:14:42;;;;;;;9.95;3.00;;;;;;;;;;4996162;28;93153;-80
2022/11/03 10:17:14;;;;;;;12.60;3.05;;;;;;;;;;4995119;28;94660;-81
2022/11/03 10:19:41;;;;;;;11.93;3.53;;;;;;;;;;4996353;28;92434;-80
2022/11/03 10:22:07;;;;;;;9.05;3.03;;;;;;;;;;4979470;28;94007;-81
2022/11/03 10:24:34;;;;;;;11.98;3.92;;;;;;;;;;4998550;28;94188;-81
2022/11/03 10:27:01;;;;;;;13.98;3.40;;;;;;;;;;4978931;28;94063;-81
2022/11/03 10:29:28;;;;;;;13.93;3.45;;;;;;;;;;4994196;28;95886;-81
2022/11/03 10:31:57;;;;;;;8.13;2.60;;;;;;;;;;4995701;28;92520;-80
2022/11/03 10:34:26;;;;;;;6.22;2.63;;;;;;;;;;4995434;28;95346;-80
2022/11/03 10:37:12;;;;;;;10.60;3.13;;;;;;;;;;4991124;28;94179;-80
2022/11/03 10:39:38;;;;;;;9.35;3.55;;;;;;;;;;4996943;28;92302;-80
2022/11/03 10:42:04;;;;;;;9.43;3.17;;;;;;;;;;4996205;28;93934;-82
2022/11/03 10:44:31;;;;;;;10.57;3.65;;;;;;;;;;4995433;28;93852;-82
2022/11/03 10:46:58;;;;;;;14.75;3.35;;;;;;;;;;4999936;28;91645;-81
2022/11/03 10:49:27;;;;;;;11.00;3.65;;;;;;;;;;4996029;28;94323;-81
2022/11/03 10:51:57;;;;;;;13.52;3.22;;;;;;;;;;4995163;28;92294;-82
2022/11/03 10:54:24;;;;;;;6.75;3.03;;;;;;;;;;4996291;28;94719;-81
2022/11/03 10:56:51;;;;;;;10.38;3.35;;;;;;;;;;4996809;28;94156;-81
2022/11/03 10:59:30;;;;;;;7.85;3.13;;;;;;;;;;4996601;28;92484;-82
2022/11/03 11:01:57;;;;;;;11.07;3.00;;;;;;;;;;4996384;28;92261;-83
2022/11/03 11:04:24;;;;;;;9.77;3.10;;;;;;;;;;4996221;28;94355;-82
2022/11/03 11:06:51;;;;;;;11.25;3.05;;;;;;;;;;4998006;28;92536;-81
2022/11/03 11:09:26;;;;;;;9.77;3.10;;;;;;;;;;4995918;28;94191;-82
2022/11/03 11:12:01;;;;;;;10.00;3.58;;;;;;;;;;4995138;28;92096;-82
2022/11/03 11:14:28;;;;;;;13.13;3.17;;;;;;;;;;4996425;28;93478;-82
2022/11/03 11:16:55;;;;;;;8.68;2.97;;;;;;;;;;4994852;28;94490;-82
2022/11/03 11:19:24;;;;;;;18.92;3.10;;;;;;;;;;4993951;28;94807;-83
2022/11/03 11:21:53;;;;;;;12.50;3.13;;;;;;;;;;4995970;28;96563;-82
2022/11/03 11:24:38;;;;;;;12.75;3.40;;;;;;;;;;4999482;28;94270;-82
2022/11/03 11:27:25;;;;;;;9.52;2.65;;;;;;;;;;4998652;28;92497;-82
2022/11/03 11:29:51;;;;;;;9.82;3.17;;;;;;;;;;5001133;28;93360;-82
2022/11/03 11:32:36;;;;;;;11.38;2.90;;;;;;;;;;4999777;28;92445;-82
2022/11/03 11:35:03;;;;;;;8.10;2.45;;;;;;;;;;4998155;28;92312;-82
2022/11/03 11:37:29;;;;;;;10.15;3.45;;;;;;;;;;4999205;28;92675;-82
2022/11/03 11:39:56;;;;;;;6.95;2.85;;;;;;;;;;5010040;28;92485;-82
2022/11/03 11:42:22;;;;;;;11.10;3.17;;;;;;;;;;5020817;28;92761;-82
2022/11/03 11:44:56;;;;;;;9.23;2.90;;;;;;;;;;5016535;28;95491;-82
2022/11/03 11:47:23;;;;;;;5.78;2.40;;;;;;;;;;5011184;28;92871;-82
2022/11/03 11:50:06;;;;;;;6.38;2.45;;;;;;;;;;4991732;28;92990;-82
2022/11/03 11:52:43;;;;;;;7.50;2.77;;;;;;;;;;5012203;28;93267;-82
2022/11/03 11:55:18;;;;;;;11.15;3.13;;;;;;;;;;5002577;28;92730;-82
2022/11/03 11:57:45;;;;;;;21.25;2.60;;;;;;;;;;4983038;28;93174;-81
2022/11/03 12:00:22;;;;;;;10.27;2.85;;;;;;;;;;5000674;28;92440;-82
2022/11/03 12:03:07;;;;;;;8.93;2.72;;;;;;;;;;4999771;28;91982;-82
2022/11/03 12:05:35;;;;;;;5.30;2.50;;;;;;;;;;4999649;28;94621;-81
2022/11/03 12:08:01;;;;;;;8.48;3.00;;;;;;;;;;4999121;28;92586;-81
2022/11/03 12:10:30;;;;;;;9.98;2.75;;;;;;;;;;4996694;28;94714;-81
2022/11/03 12:12:58;;;;;;;6.90;2.88;;;;;;;;;;4997898;28;93354;-82
2022/11/03 12:15:43;;;;;;;6.15;2.80;;;;;;;;;;4999469;28;94716;-81
2022/11/03 12:18:27;;;;;;;8.65;2.65;;;;;;;;;;4977951;28;93078;-82
2022/11/03 12:20:54;;;;;;;8.13;2.38;;;;;;;;;;4977791;28;92941;-82
2022/11/03 12:23:42;;;;;;;7.97;2.72;;;;;;;;;;4978207;28;92744;-82
2022/11/03 12:26:16;;;;;;;6.28;2.65;;;;;;;;;;4977471;28;94152;-82
2022/11/03 12:28:43;;;;;;;9.68;3.13;;;;;;;;;;4960707;28;91936;-82
2022/11/03 12:31:10;;;;;;;8.73;2.42;;;;;;;;;;4960396;28;93224;-82
2022/11/03 12:33:37;;;;;;;10.13;2.45;;;;;;;;;;4978507;28;94178;-82
2022/11/03 12:36:06;;;;;;;6.97;2.17;;;;;;;;;;4975159;28;95265;-82
2022/11/03 12:38:33;;;;;;;7.57;2.60;;;;;;;;;;4981590;28;96388;-80
2022/11/03 12:43:44;;;;;;;3.72;2.00;;;;;;;;;;4988686;28;92912;-80
2022/11/03 12:46:12;;;;;;;9.45;2.50;;;;;;;;;;4998142;28;94040;-77
2022/11/03 12:48:42;;;;;;;13.02;2.83;;;;;;;;;;4997368;28;92434;-77
2022/11/03 12:51:10;;;;;;;8.68;2.33;;;;;;;;;;4996976;28;93886;-77
2022/11/03 12:53:37;;;;;;;7.38;2.58;;;;;;;;;;4997952;28;93319;-80
2022/11/03 12:56:03;;;;;;;8.55;3.10;;;;;;;;;;4997523;28;92355;-80
2022/11/03 12:58:29;;;;;;;13.07;2.80;;;;;;;;;;4999776;28;94409;-81
2022/11/03 13:00:56;;;;;;;5.50;2.20;;;;;;;;;;4996296;28;94814;-80
2022/11/03 13:03:27;;;;;;;8.77;2.58;;;;;;;;;;4979761;28;96377;-80
2022/11/03 13:05:53;;;;;;;6.35;1.92;;;;;;;;;;4996587;28;94165;-80
2022/11/03 13:08:20;;;;;;;8.20;1.98;;;;;;;;;;4998324;28;92249;-80
2022/11/03 13:10:46;;;;;;;5.05;2.30;;;;;;;;;;4997744;28;93921;-80
2022/11/03 13:13:13;;;;;;;8.73;2.20;;;;;;;;;;4996598;28;94381;-80
2022/11/03 13:15:39;;;;;;;5.15;2.17;;;;;;;;;;4962536;28;93811;-80
2022/11/03 13:18:05;;;;;;;7.90;2.55;;;;;;;;;;4997434;28;94010;-82
2022/11/03 13:20:39;;;;;;;7.47;2.58;;;;;;;;;;4999501;28;93846;-81
2022/11/03 13:23:06;;;;;;;9.85;2.40;;;;;;;;;;4997279;28;93978;-79
2022/11/03 13:25:34;;;;;;;7.68;2.40;;;;;;;;;;4995336;28;96602;-80
2022/11/03 13:28:02;;;;;;;8.20;3.20;;;;;;;;;;4997007;28;92358;-79
2022/11/03 13:30:29;;;;;;;6.53;2.22;;;;;;;;;;4997662;28;93078;-79
2022/11/03 13:32:56;;;;;;;7.05;2.10;;;;;;;;;;4996486;28;93118;-80
2022/11/03 13:35:23;;;;;;;4.80;1.77;;;;;;;;;;4997287;28;92440;-79
2022/11/03 13:37:50;;;;;;;11.80;2.00;;;;;;;;;;4996909;28;92966;-79
2022/11/03 13:40:16;;;;;;;10.63;2.55;;;;;;;;;;4996224;28;93471;-87
2022/11/03 13:43:04;;;;;;;10.80;2.45;;;;;;;;;;4999010;28;91749;-80
2022/11/03 13:45:33;;;;;;;5.05;2.03;;;;;;;;;;4996061;28;93207;-83
2022/11/03 13:47:59;;;;;;;6.88;2.10;;;;;;;;;;4995983;28;92545;-81
2022/11/03 13:50:51;;;;;;;6.88;2.33;;;;;;;;;;4995591;28;94798;-81
2022/11/03 13:53:17;;;;;;;4.90;2.40;;;;;;;;;;4997386;28;94018;-81
2022/11/03 13:56:04;;;;;;;8.32;2.30;;;;;;;;;;4996394;28;92639;-78
2022/11/03 13:58:35;;;;;;;5.53;2.03;;;;;;;;;;4979711;28;93956;-81
2022/11/03 14:01:24;;;;;;;5.90;2.30;;;;;;;;;;4995833;28;93948;-82
2022/11/03 14:03:51;;;;;;;5.72;2.60;;;;;;;;;;4997628;28;92331;-81
2022/11/03 14:06:37;;;;;;;5.68;1.98;;;;;;;;;;4998860;28;94043;-81
2022/11/03 14:09:03;;;;;;;8.77;2.20;;;;;;;;;;4996699;28;92280;-80
2022/11/03 14:14:14;;;;;;;4.90;2.13;;;;;;;;;;4997766;28;94141;-82
2022/11/03 14:16:41;;;;;;;6.75;2.45;;;;;;;;;;4994719;28;94944;-83
2022/11/03 14:19:07;;;;;;;10.20;2.50;;;;;;;;;;4998057;28;96270;-81
2022/11/03 14:21:36;;;;;;;7.53;2.65;;;;;;;;;;4998375;28;94445;-84
2022/11/03 14:24:05;;;;;;;4.70;2.22;;;;;;;;;;5000701;28;92552;-82
2022/11/03 14:26:31;;;;;;;8.20;2.45;;;;;;;;;;4985584;28;94403;-82
2022/11/03 14:29:08;;;;;;;4.55;2.15;;;;;;;;;;5004942;28;93327;-82
2022/11/03 14:31:34;;;;;;;6.38;2.28;;;;;;;;;;5000886;28;92652;-82
2022/11/03 14:34:01;;;;;;;4.47;2.17;;;;;;;;;;4997699;28;92471;-83
2022/11/03 14:36:28;;;;;;;3.75;2.22;;;;;;;;;;4999488;28;92825;-84
2022/11/03 14:38:54;;;;;;;7.38;2.53;;;;;;;;;;5002231;28;94142;-84
2022/11/03 14:44:05;;;;;;;8.27;2.38;;;;;;;;;;4983345;28;92476;-83
2022/11/03 14:46:34;;;;;;;8.07;2.15;;;;;;;;;;4978239;28;93999;-83
2022/11/03 14:49:02;;;;;;;3.55;2.00;;;;;;;;;;4997440;28;94068;-83
2022/11/03 14:51:29;;;;;;;11.43;2.60;;;;;;;;;;5007193;28;92470;-83
2022/11/03 14:53:56;;;;;;;6.47;2.65;;;;;;;;;;4995672;28;94545;-83
2022/11/03 14:56:24;;;;;;;8.18;2.83;;;;;;;;;;4983321;28;92532;-82
2022/11/03 14:58:54;;;;;;;7.85;2.70;;;;;;;;;;5004098;28;93967;-83
2022/11/03 15:01:21;;;;;;;11.50;2.95;;;;;;;;;;4995347;28;92300;-83
2022/11/03 15:03:47;;;;;;;4.78;2.55;;;;;;;;;;4987056;28;92977;-82
2022/11/03 15:06:15;;;;;;;8.02;2.55;;;;;;;;;;4982282;28;94735;-82
2022/11/03 15:08:44;;;;;;;5.18;2.00;;;;;;;;;;4996785;28;94203;-82
2022/11/03 15:11:11;;;;;;;8.32;2.85;;;;;;;;;;5001828;28;92456;-80
2022/11/03 15:13:37;;;;;;;6.00;2.42;;;;;;;;;;4999188;28;93696;-82